Time;durP1;ratioP1;P1;durP2;ratioP2;P2;SDS_P1;SDS_P2;PMS_P1;PMS_P2;Temp;Humidity;BMP_temperature;BMP_pressure;BME280_temperature;BME280_humidity;BME280_pressure;Samples;Min_cycle;Max_cycle;Signal;HPM_P1;HPM_P2
2022/08/11 00:01:27;;;;;;;8.20;6.33;;;18.10;99.90;;;;;;5154394;27;20082;-71
2022/08/11 00:04:01;;;;;;;7.90;5.67;;;18.10;99.90;;;;;;5136408;27;20440;-71
2022/08/11 00:06:34;;;;;;;8.30;5.93;;;18.10;99.90;;;;;;5154531;27;20050;-71
2022/08/11 00:09:02;;;;;;;8.20;6.23;;;18.10;99.90;;;;;;5154280;27;20042;-71
2022/08/11 00:11:37;;;;;;;10.40;5.87;;;18.00;99.90;;;;;;5154483;27;20050;-71
2022/08/11 00:14:03;;;;;;;;;;;18.00;99.90;;;;;;5154784;27;20324;-71
2022/08/11 00:16:30;;;;;;;8.27;6.70;;;18.00;99.90;;;;;;5154600;27;19926;-71
2022/08/11 00:18:59;;;;;;;9.30;5.83;;;18.00;99.90;;;;;;5154337;27;20043;-71
2022/08/11 00:21:26;;;;;;;7.20;6.20;;;18.00;99.90;;;;;;5154462;27;20050;-71
2022/08/11 00:24:02;;;;;;;8.67;6.00;;;18.00;99.90;;;;;;5154451;27;20129;-70
2022/08/11 00:26:29;;;;;;;7.63;6.17;;;18.00;99.90;;;;;;5154298;27;20038;-71
2022/08/11 00:28:55;;;;;;;9.60;7.10;;;18.00;99.90;;;;;;5154239;27;20535;-71
2022/08/11 00:31:26;;;;;;;9.57;6.67;;;17.90;99.90;;;;;;5153896;27;20119;-70
2022/08/11 00:33:52;;;;;;;12.07;6.40;;;17.90;99.90;;;;;;5154374;27;20394;-71
2022/08/11 00:36:22;;;;;;;9.30;6.33;;;17.90;99.90;;;;;;5153794;27;20179;-71
2022/08/11 00:38:51;;;;;;;10.67;7.23;;;17.90;99.90;;;;;;5154431;27;20057;-71
2022/08/11 00:41:28;;;;;;;9.00;5.50;;;17.90;99.90;;;;;;5153867;27;20047;-71
2022/08/11 00:44:06;;;;;;;10.60;6.53;;;17.90;99.90;;;;;;5154256;27;20047;-71
2022/08/11 00:46:50;;;;;;;8.37;6.13;;;17.80;99.90;;;;;;5154330;27;20038;-70
2022/08/11 00:49:38;;;;;;;10.50;6.63;;;17.80;99.90;;;;;;5153786;27;20046;-71
2022/08/11 00:52:22;;;;;;;11.60;6.73;;;17.80;99.90;;;;;;5153765;27;20050;-71
2022/08/11 00:55:32;;;;;;;8.43;6.60;;;17.80;99.90;;;;;;5153910;27;20129;-71
2022/08/11 00:58:18;;;;;;;7.43;6.23;;;17.80;99.90;;;;;;5135368;27;20163;-71
2022/08/11 01:00:55;;;;;;;9.87;6.20;;;17.80;99.90;;;;;;5154047;27;20051;-70
2022/08/11 01:03:52;;;;;;;10.57;6.43;;;17.80;99.90;;;;;;5153777;27;20043;-71
2022/08/11 01:06:31;;;;;;;8.10;6.40;;;17.80;99.90;;;;;;5155360;27;20125;-71
2022/08/11 01:09:24;;;;;;;8.80;7.17;;;17.70;99.90;;;;;;5158013;27;20051;-70
2022/08/11 01:12:11;;;;;;;9.83;7.03;;;17.70;99.90;;;;;;5158037;27;20042;-70
2022/08/11 01:14:51;;;;;;;10.50;7.70;;;17.70;99.90;;;;;;5157933;27;20049;-71
2022/08/11 01:17:34;;;;;;;9.40;6.57;;;17.60;99.90;;;;;;5139037;27;20095;-70
2022/08/11 01:20:26;;;;;;;9.57;6.60;;;17.70;99.90;;;;;;5139195;27;20054;-70
2022/08/11 01:23:03;;;;;;;10.43;7.20;;;17.60;99.90;;;;;;5157309;27;20150;-70
2022/08/11 01:25:38;;;;;;;8.33;6.73;;;17.60;99.90;;;;;;5157497;27;20061;-70
2022/08/11 01:28:22;;;;;;;10.10;7.13;;;17.50;99.90;;;;;;5157690;27;20046;-71
2022/08/11 01:31:12;;;;;;;10.18;7.97;;;17.50;99.90;;;;;;5157728;27;20046;-70
2022/08/11 01:34:04;;;;;;;9.87;7.73;;;17.50;99.90;;;;;;5157534;27;20505;-70
2022/08/11 01:36:59;;;;;;;10.77;8.07;;;17.50;99.90;;;;;;5157144;27;20087;-70
2022/08/11 01:40:02;;;;;;;10.10;7.78;;;17.50;99.90;;;;;;5157113;27;20051;-71
2022/08/11 01:45:49;;;;;;;12.10;7.60;;;17.40;99.90;;;;;;5157258;27;20130;-70
2022/08/11 01:48:31;;;;;;;12.83;7.73;;;17.40;99.90;;;;;;5156944;27;20047;-71
2022/08/11 01:51:23;;;;;;;11.77;8.33;;;17.40;99.90;;;;;;5157406;27;20053;-70
2022/08/11 01:54:03;;;;;;;9.73;7.53;;;17.40;99.90;;;;;;5151697;27;20418;-70
2022/08/11 01:56:35;;;;;;;11.67;8.10;;;17.40;99.90;;;;;;5156753;27;20497;-70
2022/08/11 01:59:13;;;;;;;10.03;8.43;;;17.30;99.90;;;;;;5157145;27;20134;-70
2022/08/11 02:02:00;;;;;;;11.23;8.20;;;17.30;99.90;;;;;;5157293;27;20096;-70
2022/08/11 02:04:57;;;;;;;10.47;8.60;;;17.30;99.90;;;;;;5156591;27;20038;-70
2022/08/11 02:07:46;;;;;;;10.23;8.40;;;17.30;99.90;;;;;;5130266;27;20061;-71
2022/08/11 02:13:34;;;;;;;11.15;8.80;;;17.30;99.90;;;;;;5156778;27;20468;-70
2022/08/11 02:16:37;;;;;;;11.53;9.30;;;17.30;99.90;;;;;;5156672;27;20496;-70
2022/08/11 02:25:42;;;;;;;13.00;9.00;;;17.20;99.90;;;;;;5156329;27;20121;-71
2022/08/11 02:28:22;;;;;;;10.97;9.40;;;17.20;99.90;;;;;;5156434;27;20071;-70
2022/08/11 02:34:26;;;;;;;11.33;9.50;;;17.20;99.90;;;;;;5137992;27;20379;-70
2022/08/11 02:37:14;;;;;;;14.93;10.23;;;17.10;99.90;;;;;;5156582;27;20038;-70
2022/08/11 02:40:14;;;;;;;12.17;9.67;;;17.10;99.90;;;;;;5156105;27;20045;-70
2022/08/11 02:42:54;;;;;;;10.97;9.40;;;17.10;99.90;;;;;;5122263;27;20070;-71
2022/08/11 02:45:58;;;;;;;12.40;10.60;;;17.10;99.90;;;;;;5137622;27;20451;-71
2022/08/11 02:51:57;;;;;;;12.10;10.20;;;17.00;99.90;;;;;;5155927;27;20474;-70
2022/08/11 02:54:31;;;;;;;14.80;10.30;;;17.00;99.90;;;;;;5098059;27;20141;-71
2022/08/11 02:57:25;;;;;;;13.05;10.23;;;17.00;99.90;;;;;;5156139;27;20143;-71
2022/08/11 03:00:08;;;;;;;12.57;9.93;;;17.00;99.90;;;;;;5146034;27;20062;-71
2022/08/11 03:02:57;;;;;;;12.93;10.73;;;17.00;99.90;;;;;;5155541;27;20038;-70
2022/08/11 03:05:50;;;;;;;14.03;10.57;;;17.00;99.90;;;;;;5155577;27;20054;-70
2022/08/11 03:08:35;;;;;;;12.13;10.27;;;16.90;99.90;;;;;;5137285;27;20058;-70
2022/08/11 03:17:22;;;;;;;12.90;10.03;;;16.90;99.90;;;;;;5155419;27;20120;-71
2022/08/11 03:20:09;;;;;;;14.50;10.40;;;16.90;99.90;;;;;;5155427;27;20051;-71
2022/08/11 03:23:10;;;;;;;13.50;10.00;;;16.90;99.90;;;;;;5155131;27;20065;-70
2022/08/11 03:25:58;;;;;;;13.13;10.20;;;16.80;99.90;;;;;;5099976;27;20100;-70
2022/08/11 03:28:44;;;;;;;13.20;9.87;;;16.80;99.90;;;;;;5154160;27;20073;-71
2022/08/11 03:31:23;;;;;;;14.15;9.98;;;16.80;99.90;;;;;;5155305;27;20046;-70
2022/08/11 03:34:07;;;;;;;12.50;9.97;;;16.80;99.90;;;;;;5155444;27;20047;-70
2022/08/11 03:36:54;;;;;;;11.97;10.27;;;16.80;99.90;;;;;;5136341;27;20474;-70
2022/08/11 03:39:44;;;;;;;12.80;10.60;;;16.80;99.90;;;;;;5136390;27;20298;-70
2022/08/11 03:42:41;;;;;;;14.70;10.07;;;16.80;99.90;;;;;;5155038;27;20046;-70
2022/08/11 03:45:32;;;;;;;14.43;11.33;;;16.80;99.90;;;;;;5155161;27;20395;-70
2022/08/11 03:48:40;;;;;;;12.60;10.63;;;16.80;99.90;;;;;;5154891;27;20039;-70
2022/08/11 03:51:18;;;;;;;12.30;10.03;;;16.90;99.90;;;;;;5106147;27;20070;-70
2022/08/11 03:54:05;;;;;;;12.30;10.50;;;16.80;99.90;;;;;;5154558;27;20038;-70
2022/08/11 03:56:46;;;;;;;12.40;11.10;;;16.80;99.90;;;;;;5154479;27;20030;-70
2022/08/11 03:59:27;;;;;;;15.33;11.97;;;16.70;99.90;;;;;;5154717;27;20121;-70
2022/08/11 04:02:21;;;;;;;11.53;9.80;;;16.70;99.90;;;;;;5154870;27;20050;-70
2022/08/11 04:05:06;;;;;;;13.17;11.17;;;16.80;99.90;;;;;;5154327;27;20057;-70
2022/08/11 04:07:53;;;;;;;12.98;10.82;;;16.70;99.90;;;;;;5154312;27;20069;-70
2022/08/11 04:10:34;;;;;;;14.90;11.33;;;16.70;99.90;;;;;;5154454;27;20042;-70
2022/08/11 04:13:17;;;;;;;14.40;11.70;;;16.70;99.90;;;;;;5154678;27;20107;-70
2022/08/11 04:16:07;;;;;;;13.30;11.13;;;16.70;99.90;;;;;;5154095;27;20502;-70
2022/08/11 04:18:52;;;;;;;14.37;11.87;;;16.70;99.90;;;;;;5154295;27;20057;-70
2022/08/11 04:21:50;;;;;;;18.67;12.43;;;16.70;99.90;;;;;;5154236;27;20058;-70
2022/08/11 04:24:24;;;;;;;14.07;11.00;;;16.70;99.90;;;;;;5154481;27;20038;-70
2022/08/11 04:27:02;;;;;;;13.43;11.05;;;16.70;99.90;;;;;;5154053;27;20053;-70
2022/08/11 04:29:57;;;;;;;13.50;10.87;;;16.60;99.90;;;;;;5154291;27;20049;-70
2022/08/11 04:32:47;;;;;;;13.17;11.23;;;16.70;99.90;;;;;;5154303;27;20050;-70
2022/08/11 04:35:32;;;;;;;13.77;12.27;;;16.70;99.90;;;;;;5154344;27;20335;-70
2022/08/11 04:38:08;;;;;;;15.55;12.27;;;16.70;99.90;;;;;;5154124;27;20543;-70
2022/08/11 04:40:55;;;;;;;14.20;10.83;;;16.70;99.90;;;;;;5153399;27;20039;-70
2022/08/11 04:43:35;;;;;;;15.00;12.33;;;16.70;99.90;;;;;;5154210;27;20051;-70
2022/08/11 04:46:39;;;;;;;15.43;11.70;;;16.70;99.90;;;;;;5154191;27;20043;-70
2022/08/11 05:03:00;;;;;;;16.73;11.07;;;16.90;99.90;;;;;;5135603;27;20047;-70
2022/08/11 05:05:32;;;;;;;16.87;12.77;;;17.00;99.90;;;;;;5153522;27;20479;-70
2022/08/11 05:08:20;;;;;;;15.33;11.87;;;17.00;99.90;;;;;;5153661;27;20090;-70
2022/08/11 05:11:16;;;;;;;17.00;12.40;;;17.10;99.90;;;;;;5153569;27;20050;-70
2022/08/11 05:36:49;;;;;;;14.20;11.60;;;17.70;99.90;;;;;;5153293;27;20134;-70
2022/08/11 05:58:45;;;;;;;12.00;8.57;;;20.30;99.90;;;;;;5138482;27;20050;-71
2022/08/11 06:01:13;;;;;;;17.23;9.17;;;21.90;99.90;;;;;;5156701;27;20490;-71
2022/08/11 06:06:29;;;;;;;11.63;8.03;;;24.40;99.90;;;;;;5156887;27;20139;-72
2022/08/11 06:08:56;;;;;;;13.93;7.87;;;25.40;99.90;;;;;;5156582;27;20048;-72
2022/08/11 06:11:24;;;;;;;11.63;7.87;;;;;;;;;;5156480;27;20096;-71
2022/08/11 06:13:51;;;;;;;12.03;7.43;;;26.90;99.90;;;;;;5156303;27;20502;-72
2022/08/11 06:16:24;;;;;;;9.87;7.33;;;27.60;99.90;;;;;;5138356;27;20076;-71
2022/08/11 06:18:50;;;;;;;9.23;6.77;;;28.30;81.30;;;;;;5156372;27;20053;-71
2022/08/11 06:21:17;;;;;;;12.07;7.43;;;28.40;92.90;;;;;;5156384;27;20049;-71
2022/08/11 06:23:44;;;;;;;18.53;7.10;;;28.80;88.40;;;;;;5156044;27;20068;-71
2022/08/11 06:26:11;;;;;;;9.60;7.00;;;29.90;64.90;;;;;;5156472;27;20099;-71
2022/08/11 06:28:40;;;;;;;7.90;6.40;;;30.00;72.00;;;;;;5156450;27;20046;-71
2022/08/11 06:31:15;;;;;;;11.33;6.03;;;30.20;69.70;;;;;;5137514;27;20046;-71
2022/08/11 06:34:10;;;;;;;9.30;6.18;;;30.60;62.00;;;;;;5156384;27;20049;-71
2022/08/11 06:36:50;;;;;;;8.27;5.32;;;31.00;56.30;;;;;;5156330;27;20081;-71
2022/08/11 06:39:25;;;;;;;8.50;5.30;;;31.10;56.80;;;;;;5156410;27;20094;-71
2022/08/11 06:41:53;;;;;;;8.68;5.82;;;30.90;57.50;;;;;;5155978;27;20047;-71
2022/08/11 06:44:38;;;;;;;7.50;6.07;;;31.20;57.70;;;;;;5155745;27;20046;-71
2022/08/11 06:47:08;;;;;;;8.32;5.53;;;31.70;55.90;;;;;;5155554;27;20458;-71
2022/08/11 06:52:34;;;;;;;9.15;5.80;;;32.30;54.90;;;;;;5155930;27;20054;-71
2022/08/11 06:55:07;;;;;;;9.60;5.20;;;32.30;52.40;;;;;;5155578;27;20038;-71
2022/08/11 07:00:26;;;;;;;9.80;5.70;;;32.50;52.60;;;;;;5156135;27;20058;-71
2022/08/11 07:03:07;;;;;;;8.30;5.55;;;32.60;52.20;;;;;;5155508;27;20046;-71
2022/08/11 07:05:44;;;;;;;7.82;5.30;;;32.50;49.80;;;;;;5155681;27;20051;-71
2022/08/11 07:17:21;;;;;;;8.15;5.20;;;33.40;49.40;;;;;;5142617;27;20407;-71
2022/08/11 07:31:20;;;;;;;6.05;4.90;;;34.60;46.20;;;;;;5134231;27;20098;-72
2022/08/11 07:34:13;;;;;;;6.78;4.30;;;35.00;45.40;;;;;;5134603;27;20417;-72
2022/08/11 07:36:44;;;;;;;8.20;5.07;;;35.30;45.10;;;;;;5129028;27;20119;-72
2022/08/11 07:39:39;;;;;;;6.68;4.55;;;35.60;42.20;;;;;;5134463;27;20269;-73
2022/08/11 07:42:08;;;;;;;5.45;4.18;;;36.00;42.10;;;;;;5132936;27;20061;-73
2022/08/11 07:48:10;;;;;;;5.97;4.00;;;36.20;41.40;;;;;;5116025;27;20047;-72
2022/08/11 07:52:58;;;;;;;7.88;4.10;;;36.30;57.10;;;;;;5133934;27;20086;-72
2022/08/11 07:55:25;;;;;;;5.13;3.47;;;;;;;;;;5134267;27;20043;-72
2022/08/11 08:20:06;;;;;;;6.88;2.60;;;34.80;41.30;;;;;;5133587;27;20126;-73
2022/08/11 08:22:34;;;;;;;6.68;2.60;;;33.80;42.50;;;;;;5133829;27;20138;-73
2022/08/11 08:25:00;;;;;;;9.90;2.67;;;33.00;43.10;;;;;;5115111;27;20145;-73
2022/08/11 08:27:26;;;;;;;6.07;2.58;;;;;;;;;;5133657;27;20134;-72
2022/08/11 08:32:40;;;;;;;7.05;2.45;;;30.50;46.30;;;;;;5133648;27;20064;-73
2022/08/11 08:35:09;;;;;;;5.22;2.50;;;30.40;47.00;;;;;;5133166;27;20042;-71
2022/08/11 08:37:34;;;;;;;6.10;2.55;;;30.20;47.30;;;;;;5133557;27;20051;-72
2022/08/11 08:40:01;;;;;;;7.05;2.35;;;29.80;48.20;;;;;;5133173;28;20057;-72
2022/08/11 08:42:34;;;;;;;4.57;2.25;;;29.70;48.40;;;;;;5133606;28;20127;-72
2022/08/11 08:45:11;;;;;;;5.50;2.60;;;29.40;48.60;;;;;;5133358;28;20043;-74
2022/08/11 08:47:41;;;;;;;3.63;2.00;;;29.20;48.70;;;;;;5133791;28;20051;-73
2022/08/11 08:50:13;;;;;;;5.15;2.17;;;29.00;49.30;;;;;;5133292;28;20047;-73
2022/08/11 08:52:46;;;;;;;8.02;2.70;;;28.80;49.90;;;;;;5133586;28;20042;-73
2022/08/11 08:55:17;;;;;;;5.75;2.00;;;28.70;50.80;;;;;;5133080;28;20100;-73
2022/08/11 08:57:44;;;;;;;6.80;2.40;;;28.70;51.00;;;;;;5133657;28;20047;-74
2022/08/11 09:00:14;;;;;;;3.75;2.00;;;28.70;50.50;;;;;;5133061;28;20054;-73
2022/08/11 09:02:41;;;;;;;7.20;2.10;;;28.70;50.60;;;;;;5133204;28;20133;-73
2022/08/11 09:05:08;;;;;;;7.32;2.50;;;28.80;51.00;;;;;;5133156;28;20035;-72
2022/08/11 09:07:35;;;;;;;6.28;1.80;;;28.80;50.60;;;;;;5115447;28;20047;-74
2022/08/11 09:10:02;;;;;;;4.28;2.50;;;28.70;50.40;;;;;;5133070;28;20502;-77
2022/08/11 09:12:29;;;;;;;5.20;2.03;;;28.50;49.00;;;;;;5114568;28;20127;-86
2022/08/11 09:14:59;;;;;;;4.68;2.20;;;28.10;49.90;;;;;;5133050;28;20088;-87
2022/08/11 09:17:32;;;;;;;4.43;1.73;;;28.10;50.40;;;;;;5132821;28;20084;-82
2022/08/11 09:20:04;;;;;;;5.82;2.03;;;28.20;51.10;;;;;;5133110;28;20082;-82
2022/08/11 09:28:09;;;;;;;5.75;2.30;;;28.40;49.60;;;;;;5135916;27;20082;-86
2022/08/11 09:30:36;;;;;;;8.00;2.30;;;28.30;49.20;;;;;;5137141;27;20070;-83
2022/08/11 09:33:04;;;;;;;4.45;2.10;;;28.30;49.50;;;;;;5118867;27;20142;-82
2022/08/11 09:35:35;;;;;;;11.00;3.08;;;28.20;49.90;;;;;;5136730;27;20078;-87
2022/08/11 09:40:48;;;;;;;4.88;2.10;;;28.20;49.40;;;;;;5136736;27;20482;-85
2022/08/11 09:46:02;;;;;;;6.47;2.22;;;28.10;49.20;;;;;;5136698;27;20051;-89
2022/08/11 09:48:36;;;;;;;5.40;2.38;;;28.00;49.00;;;;;;5136035;27;20499;-80
2022/08/11 09:51:03;;;;;;;6.35;2.65;;;28.00;49.50;;;;;;5136563;27;20073;-75
2022/08/11 09:53:36;;;;;;;6.82;2.00;;;28.00;49.30;;;;;;5136103;27;20054;-79
2022/08/11 09:58:12;;;;;;;7.20;2.40;;;28.00;48.60;;;;;;5138127;27;20092;-81
2022/08/11 09:58:49;;;;;;;5.78;2.08;;;28.00;49.00;;;;;;5137986;27;20054;-82
2022/08/11 10:01:25;;;;;;;5.97;1.67;;;28.00;48.60;;;;;;5136841;27;20089;-81
2022/08/11 10:03:59;;;;;;;6.40;2.13;;;28.00;47.90;;;;;;5136995;27;20043;-81
2022/08/11 10:09:18;;;;;;;6.45;2.05;;;28.00;47.80;;;;;;5136319;27;20090;-86
2022/08/11 10:11:45;;;;;;;4.80;2.28;;;28.00;48.20;;;;;;5136633;27;20447;-82
2022/08/11 10:16:57;;;;;;;3.67;1.73;;;28.10;46.90;;;;;;5145454;27;20093;-79
2022/08/11 10:19:23;;;;;;;4.57;2.17;;;28.10;45.20;;;;;;5110122;27;20042;-81
2022/08/11 10:27:21;;;;;;;5.70;2.00;;;28.10;45.40;;;;;;5113378;28;20086;-73
2022/08/11 10:35:23;;;;;;;6.03;1.90;;;28.10;45.90;;;;;;5112544;28;20093;-72
2022/08/11 10:37:49;;;;;;;4.67;2.07;;;28.10;46.20;;;;;;5114154;28;20108;-75
2022/08/11 10:40:21;;;;;;;6.60;1.80;;;28.10;46.20;;;;;;5113731;28;20040;-75
2022/08/11 10:43:12;;;;;;;4.03;2.03;;;28.00;46.80;;;;;;5114631;28;20464;-70
2022/08/11 10:48:34;;;;;;;4.63;1.80;;;28.20;46.40;;;;;;5114568;28;20092;-70
2022/08/11 10:51:13;;;;;;;5.20;2.00;;;28.20;47.10;;;;;;5114992;28;20120;-71
2022/08/11 10:59:17;;;;;;;6.63;2.00;;;28.30;47.00;;;;;;5114583;28;20055;-73
2022/08/11 11:01:44;;;;;;;5.90;2.17;;;28.40;46.90;;;;;;5114636;28;20043;-70
2022/08/11 11:04:16;;;;;;;3.70;1.83;;;28.40;46.30;;;;;;5114463;28;20046;-70
2022/08/11 11:06:55;;;;;;;5.10;1.70;;;28.30;46.10;;;;;;5114441;28;20092;-71
2022/08/11 11:09:28;;;;;;;5.63;2.03;;;28.30;46.80;;;;;;5114148;28;20044;-74
2022/08/11 11:17:56;;;;;;;5.47;2.07;;;28.30;45.90;;;;;;5090572;28;20442;-73
2022/08/11 11:20:31;;;;;;;3.90;1.70;;;28.30;46.30;;;;;;5099777;28;20044;-72
2022/08/11 11:23:07;;;;;;;5.80;2.00;;;28.40;46.30;;;;;;5128554;27;20063;-71
2022/08/11 11:26:13;;;;;;;6.13;1.80;;;28.40;46.10;;;;;;5147306;27;20046;-73
2022/08/11 11:29:13;;;;;;;5.37;1.70;;;28.40;45.80;;;;;;5136249;27;20051;-72
2022/08/11 11:31:45;;;;;;;4.53;1.97;;;28.40;44.60;;;;;;5147029;27;20081;-72
2022/08/11 11:34:26;;;;;;;4.10;1.80;;;28.30;44.80;;;;;;5145027;27;20125;-74
2022/08/11 11:36:57;;;;;;;5.00;1.90;;;28.40;45.10;;;;;;5137933;27;20124;-74
2022/08/11 11:39:26;;;;;;;8.47;1.90;;;28.40;45.30;;;;;;5115830;27;20047;-74
2022/08/11 11:41:54;;;;;;;3.53;2.00;;;28.40;44.60;;;;;;5107847;27;20108;-70
2022/08/11 11:44:21;;;;;;;4.80;1.93;;;28.50;44.00;;;;;;5124517;27;20035;-71
2022/08/11 11:46:48;;;;;;;4.83;1.77;;;28.60;43.70;;;;;;5139917;27;20039;-71
2022/08/11 11:49:17;;;;;;;4.10;2.20;;;28.60;43.50;;;;;;5146621;27;20058;-73
2022/08/11 11:51:45;;;;;;;4.80;1.73;;;28.50;43.30;;;;;;5123701;27;20043;-72
2022/08/11 11:54:16;;;;;;;4.17;1.80;;;28.60;42.90;;;;;;5127215;27;20053;-70
2022/08/11 11:56:44;;;;;;;5.77;2.03;;;28.50;42.60;;;;;;5123454;27;20908;-71
2022/08/11 12:01:56;;;;;;;6.20;1.73;;;28.50;43.30;;;;;;5145693;27;20038;-70
2022/08/11 12:04:22;;;;;;;6.57;1.63;;;28.50;42.60;;;;;;5129679;27;20041;-70
2022/08/11 12:06:51;;;;;;;6.40;2.17;;;28.50;42.00;;;;;;5147921;27;20043;-71
2022/08/11 12:09:22;;;;;;;3.93;1.70;;;28.50;42.50;;;;;;5147623;27;20149;-73
2022/08/11 12:14:53;;;;;;;5.83;1.60;;;28.60;42.20;;;;;;5078404;28;20048;-70
2022/08/11 12:17:19;;;;;;;3.53;1.80;;;28.60;41.40;;;;;;5109827;27;20445;-71
2022/08/11 12:19:45;;;;;;;4.33;1.50;;;28.80;41.50;;;;;;5138197;27;20054;-74
2022/08/11 12:27:41;;;;;;;4.00;1.60;;;28.70;41.50;;;;;;5147538;27;20096;-71
2022/08/11 12:30:08;;;;;;;5.97;1.93;;;28.60;41.70;;;;;;5111106;27;20222;-71
2022/08/11 12:32:36;;;;;;;5.80;1.80;;;28.60;41.80;;;;;;5122291;27;20043;-69
2022/08/11 12:35:03;;;;;;;5.73;2.13;;;28.60;41.60;;;;;;5127859;27;20036;-70
2022/08/11 12:37:36;;;;;;;5.70;1.70;;;28.60;41.70;;;;;;5125986;27;20058;-71
2022/08/11 12:45:40;;;;;;;3.83;1.90;;;28.70;41.40;;;;;;5129972;27;20108;-71
2022/08/11 12:54:06;;;;;;;2.63;1.43;;;28.80;42.30;;;;;;5138476;27;20053;-71
2022/08/11 13:05:05;;;;;;;4.80;1.80;;;28.80;42.30;;;;;;5133529;27;20124;-71
2022/08/11 13:07:32;;;;;;;5.87;1.67;;;28.70;42.40;;;;;;5134236;27;20098;-72
2022/08/11 13:10:01;;;;;;;6.37;1.70;;;28.80;42.50;;;;;;5135342;27;20087;-71
2022/08/11 13:15:23;;;;;;;3.73;1.93;;;28.80;42.80;;;;;;5151431;27;20078;-70
2022/08/11 13:17:52;;;;;;;5.37;1.53;;;28.90;42.70;;;;;;5150963;27;20614;-72
2022/08/11 13:20:22;;;;;;;7.10;1.90;;;29.00;42.30;;;;;;5150037;27;20050;-69
2022/08/11 13:22:51;;;;;;;3.13;1.70;;;28.90;42.40;;;;;;5131632;27;20066;-74
2022/08/11 13:25:19;;;;;;;4.23;1.70;;;28.90;42.60;;;;;;5151716;27;20119;-74
2022/08/11 13:27:47;;;;;;;4.50;1.60;;;29.00;42.40;;;;;;5151364;27;20695;-73
2022/08/11 13:33:02;;;;;;;3.70;1.60;;;28.90;42.50;;;;;;5137602;27;20542;-72
2022/08/11 13:35:30;;;;;;;2.87;1.33;;;28.90;42.10;;;;;;5149119;27;20058;-70
2022/08/11 13:38:00;;;;;;;5.27;2.00;;;28.90;41.50;;;;;;5149236;27;20058;-72
2022/08/11 13:40:26;;;;;;;4.87;2.10;;;28.90;42.00;;;;;;5147210;27;20038;-73
2022/08/11 13:42:53;;;;;;;4.70;1.70;;;28.80;42.20;;;;;;5147339;27;20042;-73
2022/08/11 13:45:22;;;;;;;3.67;1.70;;;28.70;42.20;;;;;;5151233;27;20046;-76
2022/08/11 13:47:48;;;;;;;3.93;1.50;;;28.80;42.40;;;;;;5146052;27;20042;-72
2022/08/11 13:50:15;;;;;;;5.83;2.07;;;28.80;42.50;;;;;;5149382;27;20050;-70
2022/08/11 13:52:41;;;;;;;4.50;2.00;;;28.90;42.30;;;;;;5146444;27;20083;-76
2022/08/11 13:55:09;;;;;;;4.07;1.60;;;28.80;42.20;;;;;;5150086;27;20065;-72
2022/08/11 13:57:36;;;;;;;5.20;1.53;;;28.80;42.50;;;;;;5147257;27;20051;-72
2022/08/11 14:00:10;;;;;;;4.03;1.70;;;28.80;42.70;;;;;;5147417;27;20110;-73
2022/08/11 14:02:42;;;;;;;4.28;1.80;;;28.90;42.20;;;;;;5129323;27;20692;-74
2022/08/11 14:05:21;;;;;;;3.80;1.67;;;28.80;42.50;;;;;;5143189;27;20078;-75
2022/08/11 14:07:50;;;;;;;3.70;1.57;;;28.80;43.10;;;;;;5130154;27;20043;-71
2022/08/11 14:10:18;;;;;;;4.27;1.60;;;28.90;42.40;;;;;;5147200;27;20081;-72
2022/08/11 14:15:42;;;;;;;5.33;2.10;;;28.90;42.60;;;;;;5146935;27;20073;-71
2022/08/11 14:18:24;;;;;;;4.70;1.77;;;28.90;43.00;;;;;;5134917;27;20038;-72
2022/08/11 14:24:02;;;;;;;4.93;2.10;;;28.90;42.50;;;;;;5085087;28;20056;-72
2022/08/11 14:26:30;;;;;;;4.80;1.70;;;28.90;42.80;;;;;;5085372;28;20058;-71
2022/08/11 14:29:01;;;;;;;5.87;1.50;;;28.90;42.70;;;;;;5117017;27;20581;-76
2022/08/11 14:31:32;;;;;;;5.47;1.60;;;28.80;43.70;;;;;;5148109;27;20042;-74
2022/08/11 14:34:01;;;;;;;5.30;1.90;;;28.80;43.60;;;;;;5150033;27;20447;-72
2022/08/11 14:36:45;;;;;;;5.07;1.73;;;28.80;43.30;;;;;;5131426;27;20042;-71
2022/08/11 14:39:15;;;;;;;4.38;1.80;;;28.90;44.40;;;;;;5150543;27;20057;-76
2022/08/11 14:47:36;;;;;;;5.20;1.80;;;28.90;43.00;;;;;;5102937;27;20106;-72
2022/08/11 14:50:03;;;;;;;5.43;1.93;;;29.00;43.00;;;;;;5148278;27;20161;-73
2022/08/11 14:52:33;;;;;;;5.77;1.63;;;29.00;43.40;;;;;;5149842;27;20046;-72
2022/08/11 14:57:46;;;;;;;7.13;2.20;;;29.00;43.40;;;;;;5149581;27;20047;-73
2022/08/11 15:00:14;;;;;;;4.90;1.73;;;29.00;44.10;;;;;;5148111;27;20110;-71
2022/08/11 15:05:26;;;;;;;5.07;2.10;;;28.90;47.70;;;;;;5129356;27;20051;-72
2022/08/11 15:07:54;;;;;;;8.50;1.83;;;28.90;48.60;;;;;;5109882;27;20043;-71
2022/08/11 15:10:21;;;;;;;6.13;1.90;;;28.90;49.60;;;;;;5127448;27;20057;-72
2022/08/11 15:12:47;;;;;;;7.33;1.90;;;28.90;50.10;;;;;;5128019;27;20719;-74
2022/08/11 15:18:03;;;;;;;10.17;2.10;;;28.80;50.30;;;;;;5148846;27;20085;-75
2022/08/11 15:26:03;;;;;;;4.70;1.92;;;28.50;50.70;;;;;;5123198;27;20059;-74
2022/08/11 15:45:48;;;;;;;6.07;1.90;;;28.30;50.30;;;;;;5154636;27;20042;-76
2022/08/11 15:48:24;;;;;;;4.73;2.50;;;28.30;50.00;;;;;;5154981;27;20039;-75
2022/08/11 15:50:54;;;;;;;5.87;1.97;;;28.30;50.00;;;;;;5136043;27;20053;-75
2022/08/11 15:53:30;;;;;;;6.70;1.90;;;28.30;49.50;;;;;;5154899;27;20042;-75
2022/08/11 15:55:57;;;;;;;5.07;1.80;;;28.30;49.50;;;;;;5154399;27;20045;-75
2022/08/11 16:04:11;;;;;;;5.20;2.00;;;28.30;48.70;;;;;;5154430;27;20186;-74
2022/08/11 16:06:51;;;;;;;6.13;1.90;;;28.20;48.70;;;;;;5154747;27;20035;-76
2022/08/11 16:09:22;;;;;;;5.53;1.90;;;28.20;48.70;;;;;;5154578;27;20121;-75
2022/08/11 16:11:49;;;;;;;5.33;1.93;;;28.20;48.90;;;;;;5154523;27;20047;-70
2022/08/11 16:17:03;;;;;;;5.77;2.03;;;28.10;48.60;;;;;;5154158;27;20047;-69
2022/08/11 16:19:35;;;;;;;5.77;2.03;;;28.10;48.50;;;;;;5154375;27;20183;-69
2022/08/11 16:22:07;;;;;;;9.00;2.17;;;28.10;48.10;;;;;;5153979;27;20084;-70
2022/08/11 16:24:36;;;;;;;5.53;1.90;;;28.10;48.50;;;;;;5154473;27;20049;-71
2022/08/11 16:27:03;;;;;;;5.00;2.00;;;28.10;47.90;;;;;;5135646;27;20031;-73
2022/08/11 16:29:31;;;;;;;4.00;1.97;;;28.00;48.20;;;;;;5154294;27;20054;-73
2022/08/11 16:32:16;;;;;;;7.03;1.97;;;28.00;48.40;;;;;;5154075;27;20047;-71
2022/08/11 16:40:19;;;;;;;6.17;2.00;;;27.80;48.70;;;;;;5154105;27;20228;-69
2022/08/11 16:48:20;;;;;;;5.63;2.10;;;27.60;48.60;;;;;;5154159;27;20473;-69
2022/08/11 16:50:46;;;;;;;5.63;1.90;;;27.60;48.60;;;;;;5154019;27;20043;-69
2022/08/11 16:53:14;;;;;;;5.20;1.80;;;27.60;48.70;;;;;;5135700;27;20383;-69
2022/08/11 16:55:40;;;;;;;7.67;1.97;;;27.50;48.80;;;;;;5153448;27;20039;-71
2022/08/11 17:00:51;;;;;;;5.73;2.03;;;27.40;49.30;;;;;;5153086;27;20047;-77
2022/08/11 17:14:35;;;;;;;5.00;1.80;;;27.30;50.30;;;;;;5153700;27;20070;-72
2022/08/11 17:17:03;;;;;;;5.93;1.90;;;27.20;50.40;;;;;;5153269;27;20043;-69
2022/08/11 17:19:32;;;;;;;4.03;1.83;;;27.10;50.90;;;;;;5153579;27;20115;-73
2022/08/11 17:24:44;;;;;;;;;;;27.10;51.30;;;;;;5154016;27;20099;-73
2022/08/11 17:27:15;;;;;;;6.13;1.70;;;26.90;51.60;;;;;;5153227;27;19923;-73
2022/08/11 17:29:48;;;;;;;7.93;2.07;;;26.90;51.90;;;;;;5153490;27;20137;-73
2022/08/11 17:35:30;;;;;;;9.77;2.13;;;26.80;52.10;;;;;;5154125;27;20039;-74
2022/08/11 17:38:02;;;;;;;;;;;26.80;52.20;;;;;;5154202;27;20035;-74
2022/08/11 17:40:30;;;;;;;6.73;1.90;;;26.70;52.20;;;;;;5153872;27;19918;-72
2022/08/11 17:48:30;;;;;;;5.93;1.93;;;26.60;51.90;;;;;;5156222;27;20101;-72
2022/08/11 17:51:03;;;;;;;8.90;1.80;;;26.60;51.70;;;;;;5157449;27;20409;-72
2022/08/11 18:03:27;;;;;;;5.47;2.40;;;26.30;53.40;;;;;;5157578;27;20053;-68
2022/08/11 18:04:42;;;;;;;4.37;2.37;;;26.30;52.90;;;;;;5156600;27;20505;-73
